Time;durP1;ratioP1;P1;durP2;ratioP2;P2;SDS_P1;SDS_P2;PMS_P1;PMS_P2;Temp;Humidity;BMP_temperature;BMP_pressure;BME280_temperature;BME280_humidity;BME280_pressure;Samples;Min_cycle;Max_cycle;Signal;HPM_P1;HPM_P2
2021/05/13 00:00:41;;;;;;;3.13;2.80;;;;;;;11.50;82.23;100663.44;5110538;28;20077;-72
2021/05/13 00:03:06;;;;;;;3.60;2.63;;;;;;;11.49;82.44;100672.72;5103330;28;20039;-71
2021/05/13 00:05:32;;;;;;;4.47;2.70;;;;;;;11.49;82.37;100672.72;5106564;28;20020;-72
2021/05/13 00:07:57;;;;;;;3.10;2.25;;;;;;;11.48;82.42;100665.63;5073925;28;20886;-72
2021/05/13 00:10:24;;;;;;;4.53;2.45;;;;;;;11.49;82.33;100666.47;5107626;28;20024;-72
2021/05/13 00:12:52;;;;;;;3.30;2.50;;;;;;;11.49;82.49;100667.28;5109061;28;20027;-71
2021/05/13 00:15:32;;;;;;;3.95;2.50;;;;;;;11.47;82.49;100653.06;5106333;28;20031;-72
2021/05/13 00:17:57;;;;;;;3.38;2.80;;;;;;;11.46;82.27;100648.72;5089875;28;20036;-72
2021/05/13 00:20:38;;;;;;;4.93;3.03;;;;;;;11.44;82.40;100644.66;5106165;28;20027;-72
2021/05/13 00:23:03;;;;;;;3.85;3.38;;;;;;;11.44;82.33;100647.38;5091283;28;20059;-72
2021/05/13 00:25:29;;;;;;;3.00;2.40;;;;;;;11.44;82.39;100652.84;5100681;28;20064;-72
2021/05/13 00:27:54;;;;;;;3.65;2.67;;;;;;;11.44;82.58;100656.38;5107988;28;20024;-71
2021/05/13 00:30:20;;;;;;;3.50;2.90;;;;;;;11.44;82.51;100645.47;5086457;28;20019;-71
2021/05/13 00:32:46;;;;;;;3.08;2.40;;;;;;;11.44;82.59;100650.91;5097693;28;20048;-72
2021/05/13 00:35:13;;;;;;;5.05;2.70;;;;;;;11.44;82.58;100648.19;5110917;28;20027;-72
2021/05/13 00:37:38;;;;;;;3.13;2.40;;;;;;;11.44;82.50;100648.19;5111848;28;20028;-72
2021/05/13 00:40:07;;;;;;;4.75;2.72;;;;;;;11.44;82.53;100633.72;5107014;28;20380;-71
2021/05/13 00:42:33;;;;;;;4.03;2.25;;;;;;;11.46;82.52;100640.53;5111643;28;20119;-73
2021/05/13 00:44:58;;;;;;;2.92;2.50;;;;;;;11.46;82.50;100634.28;5108816;28;20158;-71
2021/05/13 00:47:25;;;;;;;3.72;2.38;;;;;;;11.45;82.53;100649.81;5111890;28;20374;-71
2021/05/13 00:49:51;;;;;;;4.45;2.53;;;;;;;11.47;82.56;100649.53;5092656;28;20133;-72
2021/05/13 00:52:18;;;;;;;3.70;2.65;;;;;;;11.48;82.40;100643.78;5114745;28;20027;-73
2021/05/13 00:54:44;;;;;;;3.33;2.25;;;;;;;11.48;82.45;100643.78;5111830;28;20027;-72
2021/05/13 00:57:11;;;;;;;3.22;2.80;;;;;;;11.49;82.47;100645.44;5115160;28;20027;-72
2021/05/13 00:59:38;;;;;;;4.00;2.70;;;;;;;11.49;82.46;100629.03;5089418;28;20520;-72
2021/05/13 01:02:04;;;;;;;3.42;2.95;;;;;;;11.49;82.47;100629.03;5098147;28;20032;-72
2021/05/13 01:04:29;;;;;;;4.57;3.00;;;;;;;11.49;82.34;100629.03;5109364;28;20081;-71
2021/05/13 01:06:56;;;;;;;6.30;2.60;;;;;;;11.49;82.43;100623.59;5114759;28;20092;-72
2021/05/13 01:09:27;;;;;;;5.20;2.83;;;;;;;11.49;82.37;100617.31;5092838;28;20019;-72
2021/05/13 01:11:58;;;;;;;4.47;2.42;;;;;;;11.47;82.42;100614.84;5115155;28;20019;-73
2021/05/13 01:14:28;;;;;;;4.43;2.40;;;;;;;11.45;82.51;100622.50;5108637;28;20015;-72
2021/05/13 01:16:59;;;;;;;4.53;2.17;;;;;;;11.46;82.42;100621.44;5114942;28;20102;-72
2021/05/13 01:19:25;;;;;;;4.30;2.60;;;;;;;11.45;82.41;100614.31;5098769;28;20374;-71
2021/05/13 01:21:50;;;;;;;3.65;2.45;;;;;;;11.47;82.41;100619.50;5115989;28;20019;-72
2021/05/13 01:24:16;;;;;;;3.28;2.60;;;;;;;11.45;82.28;100622.50;5086708;28;20063;-72
2021/05/13 01:26:46;;;;;;;3.65;2.60;;;;;;;11.45;82.45;100616.25;5112432;28;20028;-72
2021/05/13 01:29:12;;;;;;;6.70;2.33;;;;;;;11.43;82.58;100619.28;5104215;28;20027;-72
2021/05/13 01:31:37;;;;;;;2.47;1.90;;;;;;;11.43;82.58;100624.72;5112086;28;20024;-72
2021/05/13 01:34:04;;;;;;;4.50;2.55;;;;;;;11.43;82.60;100613.81;5097542;28;20098;-72
2021/05/13 01:36:33;;;;;;;4.70;2.13;;;;;;;11.45;82.64;100619.78;5105817;28;20028;-72
2021/05/13 01:38:58;;;;;;;2.80;2.10;;;;;;;11.45;82.65;100608.88;5105967;28;20115;-73
2021/05/13 01:41:23;;;;;;;4.93;2.42;;;;;;;11.45;82.60;100606.13;5108430;28;20028;-73
2021/05/13 01:43:49;;;;;;;4.15;2.20;;;;;;;11.45;82.59;100611.59;5093768;28;20024;-73
2021/05/13 01:46:15;;;;;;;4.85;2.10;;;;;;;11.43;82.67;100608.34;5086696;28;20035;-70
2021/05/13 01:48:40;;;;;;;3.58;2.28;;;;;;;11.43;82.58;100616.53;5102799;28;20032;-73
2021/05/13 01:51:05;;;;;;;5.03;2.75;;;;;;;11.44;82.70;100620.88;5095052;28;20019;-73
2021/05/13 01:53:31;;;;;;;5.20;2.50;;;;;;;11.46;82.60;100613.25;5110091;28;20394;-73
2021/05/13 01:55:56;;;;;;;3.92;2.40;;;;;;;11.48;82.57;100611.03;5094043;28;20039;-72
2021/05/13 01:58:22;;;;;;;6.38;2.88;;;;;;;11.49;82.63;100609.94;5105834;28;20028;-73
2021/05/13 02:00:49;;;;;;;7.18;3.00;;;;;;;11.50;82.66;100613.47;5113987;28;20031;-72
2021/05/13 02:03:14;;;;;;;6.47;3.22;;;;;;;11.49;82.63;100600.94;5110957;28;20500;-72
2021/05/13 02:05:41;;;;;;;4.65;2.35;;;;;;;11.48;82.64;100600.09;5109123;28;20028;-73
2021/05/13 02:08:06;;;;;;;4.47;3.20;;;;;;;11.49;82.79;100604.47;5105123;28;20020;-72
2021/05/13 02:10:32;;;;;;;4.53;3.10;;;;;;;11.49;82.67;100595.47;5107283;28;20027;-72
2021/05/13 02:12:59;;;;;;;4.40;3.25;;;;;;;11.48;82.22;100600.09;5113792;28;20045;-73
2021/05/13 02:15:24;;;;;;;4.57;3.30;;;;;;;11.47;82.72;100598.47;5080621;28;20029;-72
2021/05/13 02:17:50;;;;;;;7.63;4.20;;;;;;;11.50;82.87;100597.09;5107429;28;20165;-73
2021/05/13 02:20:17;;;;;;;6.53;3.65;;;;;;;11.49;82.81;100595.47;5105977;28;20031;-73
2021/05/13 02:22:42;;;;;;;4.38;3.58;;;;;;;11.50;82.94;100587.00;5094637;28;20034;-73
2021/05/13 02:25:09;;;;;;;7.10;4.35;;;;;;;11.51;82.78;100587.78;5100713;28;20024;-71
2021/05/13 02:27:35;;;;;;;5.57;4.03;;;;;;;11.51;82.95;100582.34;5093610;28;20071;-73
2021/05/13 02:30:00;;;;;;;6.57;4.30;;;;;;;11.51;82.90;100583.19;5111103;28;20032;-71
2021/05/13 02:32:26;;;;;;;6.60;4.50;;;;;;;11.51;82.92;100571.41;5096190;28;20048;-72
2021/05/13 02:34:51;;;;;;;8.23;3.92;;;;;;;11.50;83.01;100576.06;5105467;28;20023;-71
2021/05/13 02:37:19;;;;;;;9.68;4.28;;;;;;;11.51;83.04;100577.72;5102164;28;20024;-71
2021/05/13 02:39:45;;;;;;;7.80;4.63;;;;;;;11.51;83.15;100577.72;5102933;28;20382;-71
2021/05/13 02:42:10;;;;;;;8.13;4.85;;;;;;;11.52;83.02;100573.06;5099114;28;20031;-72
2021/05/13 02:44:36;;;;;;;6.38;4.60;;;;;;;11.54;82.95;100570.88;5106504;28;20035;-72
2021/05/13 02:47:02;;;;;;;8.40;5.07;;;;;;;11.54;83.31;100571.69;5108501;28;20028;-71
2021/05/13 02:49:27;;;;;;;7.72;5.47;;;;;;;11.56;83.07;100568.66;5103371;28;20500;-71
2021/05/13 02:51:53;;;;;;;7.78;5.90;;;;;;;11.57;83.06;100564.84;5110075;28;20478;-71
2021/05/13 02:54:18;;;;;;;10.15;5.65;;;;;;;11.59;83.21;100572.72;5102240;28;20031;-71
2021/05/13 02:56:43;;;;;;;8.10;5.22;;;;;;;11.58;83.19;100561.00;5111573;28;20023;-72
2021/05/13 02:59:10;;;;;;;6.88;4.85;;;;;;;11.60;83.17;100563.44;5114298;28;20084;-71
2021/05/13 03:01:35;;;;;;;9.27;5.05;;;;;;;11.60;83.14;100563.44;5112524;28;20024;-71
2021/05/13 03:04:00;;;;;;;7.63;5.07;;;;;;;11.60;83.13;100552.53;5111130;28;20030;-72
2021/05/13 03:06:27;;;;;;;8.93;5.07;;;;;;;11.60;83.05;100558.81;5113840;28;20023;-72
2021/05/13 03:08:54;;;;;;;7.22;5.60;;;;;;;11.60;83.17;100563.44;5108922;28;20137;-72
2021/05/13 03:11:21;;;;;;;10.60;5.05;;;;;;;11.62;83.24;100567.53;5105762;28;20024;-71
2021/05/13 03:13:49;;;;;;;8.20;5.38;;;;;;;11.63;83.19;100554.69;5103445;28;20063;-72
2021/05/13 03:16:14;;;;;;;8.52;5.30;;;;;;;11.63;83.13;100560.16;5113924;28;20015;-72
2021/05/13 03:18:40;;;;;;;6.00;4.85;;;;;;;11.65;83.09;100555.19;5082076;28;20029;-73
2021/05/13 03:21:12;;;;;;;6.30;5.28;;;;;;;11.63;83.07;100547.31;5111334;28;20039;-72
2021/05/13 03:23:55;;;;;;;7.95;4.97;;;;;;;11.65;83.10;100553.31;5097562;28;20034;-73
2021/05/13 03:26:31;;;;;;;8.57;4.85;;;;;;;11.66;82.66;100554.09;5107033;28;20031;-72
2021/05/13 03:28:56;;;;;;;9.02;6.18;;;;;;;11.68;83.04;100555.44;5103571;28;20035;-72
2021/05/13 03:31:21;;;;;;;8.73;5.30;;;;;;;11.69;83.00;100550.81;5113351;28;20462;-73
2021/05/13 03:33:47;;;;;;;8.68;5.30;;;;;;;11.69;82.84;100557.06;5102720;28;20048;-72
2021/05/13 03:36:12;;;;;;;9.02;5.35;;;;;;;11.70;82.81;100557.88;5112202;28;20043;-72
2021/05/13 03:38:38;;;;;;;7.70;5.15;;;;;;;11.71;83.07;100565.00;5093386;28;20031;-72
2021/05/13 03:41:03;;;;;;;15.63;6.28;;;;;;;11.72;82.94;100561.97;5094900;28;20090;-72
2021/05/13 03:43:28;;;;;;;8.60;5.88;;;;;;;11.74;82.87;100561.69;5089138;28;20432;-72
2021/05/13 03:45:54;;;;;;;10.70;6.80;;;;;;;11.76;82.82;100567.69;5113361;28;20030;-72
2021/05/13 03:48:19;;;;;;;7.88;6.00;;;;;;;11.76;82.84;100568.50;5099759;28;20024;-71
2021/05/13 03:50:45;;;;;;;10.80;6.20;;;;;;;11.77;82.64;100572.03;5112173;28;20027;-71
2021/05/13 03:53:10;;;;;;;9.40;6.05;;;;;;;11.78;82.64;100573.66;5101522;28;20474;-71
2021/05/13 03:55:36;;;;;;;8.48;6.05;;;;;;;11.79;82.65;100567.09;5107203;28;20065;-72
2021/05/13 03:58:04;;;;;;;9.18;5.47;;;;;;;11.82;82.63;100561.06;5093481;28;20023;-71
2021/05/13 04:00:38;;;;;;;9.88;6.85;;;;;;;11.84;82.63;100568.94;5110186;28;20027;-71
2021/05/13 04:03:03;;;;;;;7.38;5.40;;;;;;;11.85;82.56;100565.94;5094761;28;20028;-71
2021/05/13 04:05:29;;;;;;;8.25;5.80;;;;;;;11.86;82.56;100559.41;5103013;28;20031;-71
2021/05/13 04:07:54;;;;;;;6.70;5.22;;;;;;;11.83;82.43;100559.94;5104311;28;20160;-71
2021/05/13 04:10:20;;;;;;;9.45;6.03;;;;;;;11.84;82.44;100553.41;5106993;28;20034;-71
2021/05/13 04:12:50;;;;;;;9.75;6.28;;;;;;;11.86;82.36;100561.31;5105736;28;20051;-71
2021/05/13 04:15:15;;;;;;;9.50;6.25;;;;;;;11.86;82.44;100567.59;5104669;28;20035;-72
2021/05/13 04:17:41;;;;;;;10.50;6.25;;;;;;;11.90;82.28;100562.38;5106727;28;20077;-70
2021/05/13 04:20:07;;;;;;;9.25;6.45;;;;;;;11.91;82.30;100564.00;5102167;28;20501;-71
2021/05/13 04:22:34;;;;;;;10.32;6.90;;;;;;;11.89;82.23;100556.09;5076846;28;20100;-73
2021/05/13 04:24:59;;;;;;;8.43;6.47;;;;;;;11.88;82.09;100554.47;5098133;28;20031;-72
2021/05/13 04:27:24;;;;;;;9.38;6.53;;;;;;;11.88;82.11;100554.47;5110538;28;20032;-72
2021/05/13 04:29:50;;;;;;;10.82;6.75;;;;;;;11.92;82.21;100549.22;5109083;28;20076;-72
2021/05/13 04:32:15;;;;;;;8.60;6.43;;;;;;;11.94;82.21;100547.03;5106830;28;20082;-72
2021/05/13 04:34:41;;;;;;;7.70;5.85;;;;;;;11.91;81.82;100548.44;5096188;28;20403;-72
2021/05/13 04:37:06;;;;;;;8.05;6.25;;;;;;;11.92;81.95;100538.31;5102185;28;20038;-72
2021/05/13 04:39:31;;;;;;;9.15;4.97;;;;;;;11.94;81.88;100539.66;5108877;28;20024;-72
2021/05/13 04:41:57;;;;;;;9.73;6.00;;;;;;;12.01;81.85;100530.31;5116467;28;20423;-72
2021/05/13 04:44:22;;;;;;;9.27;5.75;;;;;;;12.06;81.60;100538.44;5106962;28;20033;-72
2021/05/13 04:46:57;;;;;;;8.35;5.53;;;;;;;12.09;81.56;100535.97;5116406;28;20027;-72
2021/05/13 04:49:24;;;;;;;6.22;5.53;;;;;;;12.08;81.37;100536.22;5105928;28;20057;-73
2021/05/13 04:51:50;;;;;;;9.02;6.25;;;;;;;12.06;81.19;100532.97;5116262;28;20489;-73
2021/05/13 04:54:17;;;;;;;9.10;6.38;;;;;;;12.09;81.20;100532.41;5106331;28;20043;-73
2021/05/13 04:56:42;;;;;;;6.05;5.05;;;;;;;12.09;81.09;100524.22;5101104;28;20027;-72
2021/05/13 04:59:08;;;;;;;9.15;5.53;;;;;;;12.04;80.91;100529.75;5095438;28;20027;-73
2021/05/13 05:01:33;;;;;;;8.82;6.25;;;;;;;12.03;81.06;100525.34;5114213;28;20070;-73
2021/05/13 05:03:59;;;;;;;7.32;5.43;;;;;;;12.03;81.06;100528.94;5101315;28;20027;-73
2021/05/13 05:06:24;;;;;;;7.70;5.80;;;;;;;12.04;80.84;100529.75;5116206;28;20024;-72
2021/05/13 05:08:50;;;;;;;8.50;5.88;;;;;;;12.02;80.92;100531.94;5103967;28;20474;-72
2021/05/13 05:11:17;;;;;;;8.07;5.82;;;;;;;11.97;80.97;100525.41;5114826;28;20023;-72
2021/05/13 05:13:42;;;;;;;6.57;5.43;;;;;;;11.93;80.70;100518.91;5092940;28;20035;-73
2021/05/13 05:16:08;;;;;;;8.30;6.00;;;;;;;11.91;80.97;100518.38;5087279;28;20043;-73
2021/05/13 05:18:33;;;;;;;7.72;5.10;;;;;;;11.94;80.89;100515.06;5102811;28;20031;-73
2021/05/13 05:20:58;;;;;;;9.75;5.38;;;;;;;12.01;80.86;100513.94;5113441;28;20027;-73
2021/05/13 05:23:27;;;;;;;9.48;5.07;;;;;;;12.04;80.78;100513.34;5103793;28;20032;-73
2021/05/13 05:25:52;;;;;;;8.80;5.10;;;;;;;12.10;80.86;100523.09;5106867;28;20102;-72
2021/05/13 05:28:18;;;;;;;6.53;5.68;;;;;;;12.18;80.76;100519.72;5111517;28;20043;-72
2021/05/13 05:30:43;;;;;;;7.25;5.43;;;;;;;12.26;80.56;100516.34;5114781;28;20015;-73
2021/05/13 05:33:10;;;;;;;6.47;4.80;;;;;;;12.31;80.48;100519.03;5094580;27;20036;-73
2021/05/13 05:35:37;;;;;;;11.30;5.45;;;;;;;12.34;80.25;100518.44;5090398;28;20024;-72
2021/05/13 05:38:03;;;;;;;6.30;4.20;;;;;;;12.37;80.17;100522.50;5096605;28;20526;-73
2021/05/13 05:40:28;;;;;;;7.40;4.38;;;;;;;12.39;80.10;100520.31;5114354;28;20087;-73
2021/05/13 05:42:53;;;;;;;6.68;5.00;;;;;;;12.38;80.07;100514.00;5111669;27;20028;-73
2021/05/13 05:45:20;;;;;;;8.73;5.97;;;;;;;12.35;79.86;100514.59;5095396;28;20390;-73
2021/05/13 05:47:46;;;;;;;6.30;4.80;;;;;;;12.36;79.78;100505.31;5111927;28;20038;-72
2021/05/13 05:50:11;;;;;;;6.38;4.88;;;;;;;12.36;79.80;100499.03;5107899;28;20465;-72
2021/05/13 05:52:37;;;;;;;6.05;4.70;;;;;;;12.35;79.87;100506.41;5114375;28;20022;-72
2021/05/13 05:55:03;;;;;;;7.25;4.57;;;;;;;12.39;79.85;100503.91;5093490;28;20043;-73
2021/05/13 05:57:29;;;;;;;5.97;4.68;;;;;;;12.43;79.87;100504.94;5101730;28;20032;-71
2021/05/13 05:59:55;;;;;;;6.55;4.32;;;;;;;12.48;79.72;100506.81;5106971;28;20019;-72
2021/05/13 06:02:20;;;;;;;7.28;4.70;;;;;;;12.50;79.57;100504.59;5104234;28;20031;-72
2021/05/13 06:04:46;;;;;;;7.60;4.55;;;;;;;12.53;79.54;100506.75;5099099;28;20466;-72
2021/05/13 06:07:11;;;;;;;6.57;4.28;;;;;;;12.61;79.61;100506.09;5115138;28;20658;-72
2021/05/13 06:09:37;;;;;;;7.05;4.18;;;;;;;12.76;79.53;100503.13;5098255;28;20023;-72
2021/05/13 06:12:04;;;;;;;7.05;4.93;;;;;;;12.85;79.20;100500.56;5099011;28;20024;-72
2021/05/13 06:14:29;;;;;;;5.00;4.00;;;;;;;12.97;79.13;100506.38;5104023;28;20034;-72
2021/05/13 06:16:55;;;;;;;6.22;4.85;;;;;;;13.01;78.73;100503.84;5114756;28;20028;-72
2021/05/13 06:19:20;;;;;;;5.65;3.72;;;;;;;13.08;78.64;100507.84;5104472;28;20026;-73
2021/05/13 06:21:46;;;;;;;5.25;3.92;;;;;;;13.09;78.33;100508.66;5114889;27;20027;-72
2021/05/13 06:24:11;;;;;;;5.38;3.88;;;;;;;13.13;78.28;100506.16;5096666;28;20032;-72
2021/05/13 06:26:38;;;;;;;5.70;3.67;;;;;;;13.19;78.18;100511.25;5111062;28;20459;-72
2021/05/13 06:29:07;;;;;;;7.45;4.03;;;;;;;13.25;78.00;100507.28;5101502;28;20020;-72
2021/05/13 06:31:33;;;;;;;7.53;4.35;;;;;;;13.30;77.73;100507.25;5107053;28;20030;-72
2021/05/13 06:33:59;;;;;;;6.20;4.22;;;;;;;13.35;77.44;100511.03;5092663;28;20059;-72
2021/05/13 06:36:25;;;;;;;6.47;3.72;;;;;;;13.41;77.51;100504.34;5108393;28;20020;-72
2021/05/13 06:38:50;;;;;;;5.57;3.83;;;;;;;13.43;77.09;100507.63;5100141;28;20028;-72
2021/05/13 06:41:16;;;;;;;6.45;4.05;;;;;;;13.49;77.04;100514.63;5114031;28;20386;-72
2021/05/13 06:43:41;;;;;;;4.32;3.45;;;;;;;13.55;76.98;100510.66;5110243;28;20069;-72
2021/05/13 06:46:07;;;;;;;5.28;4.10;;;;;;;13.57;76.59;100502.97;5114238;28;20042;-73
2021/05/13 06:48:34;;;;;;;6.15;4.10;;;;;;;13.60;76.66;100496.91;5107722;28;20027;-72
2021/05/13 06:51:00;;;;;;;4.03;3.22;;;;;;;13.57;76.34;100494.75;5113561;28;20026;-72
2021/05/13 06:53:25;;;;;;;5.25;2.78;;;;;;;13.50;76.18;100494.31;5070538;28;20024;-72
2021/05/13 06:55:53;;;;;;;5.18;3.50;;;;;;;13.42;76.29;100487.63;5100593;28;20020;-72
2021/05/13 06:58:22;;;;;;;8.10;4.68;;;;;;;13.45;76.44;100486.19;5108151;28;20035;-71
2021/05/13 07:00:48;;;;;;;6.07;4.82;;;;;;;13.44;76.25;100490.06;5109787;28;20024;-71
2021/05/13 07:03:14;;;;;;;7.07;5.38;;;;;;;13.43;76.07;100491.19;5094456;28;20108;-72
2021/05/13 07:05:39;;;;;;;7.43;5.65;;;;;;;13.46;76.25;100493.31;5108334;28;20035;-72
2021/05/13 07:08:05;;;;;;;10.27;5.90;;;;;;;13.47;75.94;100490.25;5093511;28;20462;-71
2021/05/13 07:10:31;;;;;;;8.50;5.78;;;;;;;13.50;75.87;100491.59;5102222;28;20045;-71
2021/05/13 07:12:57;;;;;;;9.68;7.07;;;;;;;13.52;75.63;100486.63;5101109;28;20094;-72
2021/05/13 07:15:23;;;;;;;10.20;7.65;;;;;;;13.48;75.67;100496.56;5106683;28;20031;-71
2021/05/13 07:17:48;;;;;;;10.65;7.70;;;;;;;13.49;75.84;100493.53;5113404;28;20094;-71
2021/05/13 07:20:14;;;;;;;8.98;7.13;;;;;;;13.52;75.72;100478.41;5105517;28;20031;-72
2021/05/13 07:22:39;;;;;;;9.02;7.30;;;;;;;13.50;75.56;100475.16;5113164;28;20032;-72
2021/05/13 07:25:06;;;;;;;10.95;8.00;;;;;;;13.57;75.53;100486.53;5098105;28;20077;-72
2021/05/13 07:27:32;;;;;;;10.93;7.38;;;;;;;13.61;75.24;100487.56;5101285;28;20473;-72
2021/05/13 07:29:57;;;;;;;11.55;7.63;;;;;;;13.63;75.15;100488.06;5096853;28;20034;-72
2021/05/13 07:32:23;;;;;;;8.88;7.43;;;;;;;13.63;75.06;100485.34;5113011;28;20035;-72
2021/05/13 07:34:48;;;;;;;11.13;8.13;;;;;;;13.66;75.07;100479.25;5086563;28;20029;-72
2021/05/13 07:37:14;;;;;;;9.98;8.60;;;;;;;13.61;75.26;100482.06;5111964;28;20071;-72
2021/05/13 07:39:39;;;;;;;10.40;9.27;;;;;;;13.69;75.39;100486.84;5086474;28;20028;-72
2021/05/13 07:42:05;;;;;;;11.70;9.00;;;;;;;13.76;75.09;100475.53;5111094;28;20027;-72
2021/05/13 07:44:30;;;;;;;11.95;8.70;;;;;;;13.87;75.21;100476.94;5100237;28;20097;-72
2021/05/13 07:46:57;;;;;;;11.32;9.25;;;;;;;13.95;74.94;100469.94;5110525;28;20438;-71
2021/05/13 07:49:23;;;;;;;11.77;9.75;;;;;;;14.02;74.91;100484.03;5091788;28;20036;-71
2021/05/13 07:51:48;;;;;;;10.80;9.07;;;;;;;14.02;74.59;100475.00;5102999;28;20107;-71
2021/05/13 07:54:14;;;;;;;11.13;8.68;;;;;;;14.04;74.85;100481.81;5103153;28;20036;-71
2021/05/13 07:56:39;;;;;;;11.13;9.05;;;;;;;14.06;74.44;100468.63;5091867;28;20036;-71
2021/05/13 07:59:05;;;;;;;11.82;9.32;;;;;;;14.19;74.40;100462.34;5090787;28;20032;-70
2021/05/13 08:01:30;;;;;;;10.23;8.98;;;;;;;14.27;74.26;100459.97;5107361;28;20020;-70
2021/05/13 08:03:55;;;;;;;10.05;8.57;;;;;;;14.35;74.22;100470.22;5114112;28;20027;-70
2021/05/13 08:06:21;;;;;;;11.38;8.93;;;;;;;14.38;73.82;100475.13;5117025;28;20023;-71
2021/05/13 08:08:46;;;;;;;11.60;9.75;;;;;;;14.33;73.86;100467.00;5111015;28;20413;-71
2021/05/13 08:11:12;;;;;;;10.98;9.02;;;;;;;14.35;73.58;100462.81;5116975;28;20489;-71
2021/05/13 08:13:37;;;;;;;11.55;9.73;;;;;;;14.36;73.60;100460.88;5107827;28;20034;-71
2021/05/13 08:16:03;;;;;;;11.40;10.02;;;;;;;14.41;73.59;100458.03;5109325;28;20027;-71
2021/05/13 08:18:28;;;;;;;12.73;10.00;;;;;;;14.46;73.69;100465.31;5114521;28;20080;-72
2021/05/13 08:20:54;;;;;;;11.60;9.52;;;;;;;14.55;73.43;100456.09;5112500;28;20359;-72
2021/05/13 08:23:19;;;;;;;13.13;10.00;;;;;;;14.57;73.07;100447.59;5110507;28;20081;-71
2021/05/13 08:25:44;;;;;;;13.18;9.80;;;;;;;14.68;72.86;100450.88;5098592;28;20524;-72
2021/05/13 08:28:10;;;;;;;11.48;9.60;;;;;;;14.67;72.97;100455.56;5107288;28;20019;-73
2021/05/13 08:30:35;;;;;;;10.82;9.50;;;;;;;14.79;73.05;100460.53;5096641;28;20045;-72
2021/05/13 08:33:01;;;;;;;11.27;10.15;;;;;;;14.95;72.60;100450.81;5101815;28;20056;-72
2021/05/13 08:35:26;;;;;;;12.30;10.18;;;;;;;15.08;72.31;100451.84;5097842;28;20020;-72
2021/05/13 08:37:52;;;;;;;12.60;10.45;;;;;;;15.19;72.04;100449.66;5093099;28;20438;-72
2021/05/13 08:40:17;;;;;;;14.05;11.02;;;;;;;15.26;71.91;100452.78;5092974;28;20023;-72
2021/05/13 08:42:43;;;;;;;12.32;10.48;;;;;;;15.24;71.76;100457.78;5081005;28;20462;-71
2021/05/13 08:45:08;;;;;;;12.65;10.88;;;;;;;15.29;71.92;100452.16;5091748;28;20470;-72
2021/05/13 08:47:38;;;;;;;12.77;11.02;;;;;;;15.48;71.37;100440.97;5107500;28;20048;-72
2021/05/13 08:50:04;;;;;;;13.32;10.68;;;;;;;15.65;70.82;100432.78;5097516;28;20035;-72
2021/05/13 08:52:30;;;;;;;13.32;10.55;;;;;;;15.53;70.34;100438.88;5113223;28;20024;-72
2021/05/13 08:54:56;;;;;;;12.15;9.05;;;;;;;15.35;70.69;100437.16;5096149;28;20081;-73
2021/05/13 08:57:22;;;;;;;12.13;10.82;;;;;;;15.33;70.80;100431.16;5114363;28;20020;-72
2021/05/13 08:59:48;;;;;;;12.32;9.70;;;;;;;15.21;71.01;100430.94;5077045;28;20032;-72
2021/05/13 09:02:14;;;;;;;12.75;10.18;;;;;;;15.12;70.88;100438.31;5109788;28;20107;-72
2021/05/13 09:04:46;;;;;;;13.18;11.00;;;;;;;15.02;70.99;100437.44;5096173;28;20548;-72
2021/05/13 09:07:22;;;;;;;14.67;9.73;;;;;;;14.94;71.32;100426.41;5108673;28;20036;-72
2021/05/13 09:10:14;;;;;;;12.35;10.80;;;;;;;14.88;71.61;100431.19;5095074;28;20281;-72
2021/05/13 09:12:50;;;;;;;12.07;9.77;;;;;;;14.94;71.43;100423.66;5097471;28;20490;-73
2021/05/13 09:15:19;;;;;;;13.48;9.55;;;;;;;15.04;71.58;100426.97;5087217;28;20036;-72
2021/05/13 09:17:49;;;;;;;10.90;9.48;;;;;;;15.14;71.20;100419.56;5099183;28;20027;-72
2021/05/13 09:20:22;;;;;;;11.30;10.10;;;;;;;15.12;71.04;100416.34;5113106;28;20030;-72
2021/05/13 09:22:47;;;;;;;12.75;10.20;;;;;;;15.15;71.09;100426.72;5103175;28;20055;-73
2021/05/13 09:25:13;;;;;;;13.25;10.25;;;;;;;15.23;71.10;100406.72;5100033;28;20034;-72
2021/05/13 09:27:49;;;;;;;10.73;9.50;;;;;;;15.19;70.90;100411.22;5115698;27;20046;-72
2021/05/13 09:30:22;;;;;;;11.65;10.32;;;;;;;15.19;71.15;100411.22;5086584;28;20020;-72
2021/05/13 09:32:55;;;;;;;11.48;10.18;;;;;;;15.36;71.06;100405.00;5114545;28;20071;-72
2021/05/13 09:35:21;;;;;;;14.30;11.20;;;;;;;15.46;70.68;100402.00;5096275;28;20031;-72
2021/05/13 09:37:48;;;;;;;13.13;11.15;;;;;;;15.48;70.41;100403.31;5095071;28;20433;-72
2021/05/13 09:40:15;;;;;;;11.07;9.93;;;;;;;15.56;70.38;100409.16;5096398;28;20035;-72
2021/05/13 09:42:41;;;;;;;12.35;9.70;;;;;;;15.64;70.46;100400.16;5103353;28;20028;-72
2021/05/13 09:45:08;;;;;;;13.52;10.00;;;;;;;15.79;70.26;100398.91;5102276;28;20496;-72
2021/05/13 09:47:33;;;;;;;13.13;10.68;;;;;;;15.91;70.05;100399.94;5114153;28;20054;-72
2021/05/13 09:50:05;;;;;;;11.00;9.32;;;;;;;16.03;69.59;100398.50;5090948;27;20060;-72
2021/05/13 09:52:52;;;;;;;11.00;9.75;;;;;;;16.06;69.48;100395.91;5101308;28;20537;-73
2021/05/13 09:55:25;;;;;;;13.60;10.68;;;;;;;16.00;69.12;100391.72;5103872;28;20173;-72
2021/05/13 09:58:10;;;;;;;12.40;10.30;;;;;;;15.95;69.45;100387.16;5114958;28;20035;-71
2021/05/13 10:00:48;;;;;;;11.93;10.05;;;;;;;15.93;69.35;100386.69;5093337;28;20031;-72
2021/05/13 10:03:24;;;;;;;11.88;9.98;;;;;;;15.95;69.43;100384.41;5113848;28;20019;-72
2021/05/13 10:05:52;;;;;;;11.13;9.90;;;;;;;15.91;69.19;100374.41;5093106;27;20027;-72
2021/05/13 10:08:17;;;;;;;12.15;10.95;;;;;;;15.93;69.59;100377.59;5114619;28;20038;-72
2021/05/13 10:10:43;;;;;;;12.48;9.65;;;;;;;16.05;69.50;100369.56;5089918;28;20028;-72
2021/05/13 10:13:09;;;;;;;10.75;9.63;;;;;;;16.13;69.29;100378.97;5113127;28;20028;-72
2021/05/13 10:15:37;;;;;;;10.60;9.45;;;;;;;16.27;68.96;100374.13;5088726;28;20039;-71
2021/05/13 10:18:18;;;;;;;11.95;10.35;;;;;;;16.36;68.86;100372.19;5096325;28;20057;-72
2021/05/13 10:20:45;;;;;;;11.68;10.02;;;;;;;16.48;68.71;100365.22;5092494;28;20033;-71
2021/05/13 10:23:13;;;;;;;11.45;9.25;;;;;;;16.51;68.34;100367.34;5096151;28;20020;-71
2021/05/13 10:25:39;;;;;;;11.13;9.48;;;;;;;16.54;68.20;100361.19;5091580;28;20381;-72
2021/05/13 10:28:05;;;;;;;10.63;9.52;;;;;;;16.56;68.18;100367.16;5109126;28;20103;-72
2021/05/13 10:30:34;;;;;;;10.75;9.65;;;;;;;16.69;68.09;100365.38;5091471;28;20042;-72
2021/05/13 10:33:13;;;;;;;10.55;9.38;;;;;;;16.83;68.04;100368.78;5096114;28;20130;-71
2021/05/13 10:35:40;;;;;;;10.45;9.18;;;;;;;16.96;67.56;100361.50;5105345;28;20024;-72
2021/05/13 10:38:10;;;;;;;11.20;9.88;;;;;;;17.00;67.26;100363.28;5095713;28;20072;-72
2021/05/13 10:40:44;;;;;;;10.63;9.38;;;;;;;16.97;67.06;100363.09;5105199;28;20161;-72
2021/05/13 10:43:09;;;;;;;10.25;8.65;;;;;;;16.98;66.99;100364.72;5099736;28;20024;-72
2021/05/13 10:45:35;;;;;;;10.65;8.90;;;;;;;17.05;67.23;100371.38;5107531;28;20047;-72
2021/05/13 10:48:25;;;;;;;11.35;9.10;;;;;;;17.15;66.83;100356.41;5111487;28;20428;-72
2021/05/13 10:50:57;;;;;;;11.13;9.20;;;;;;;17.28;66.47;100363.66;5100177;28;20474;-72
2021/05/13 10:53:38;;;;;;;10.05;8.93;;;;;;;17.41;66.32;100348.06;5113584;28;20031;-72
2021/05/13 10:56:17;;;;;;;8.85;7.95;;;;;;;17.43;66.13;100354.06;5099380;28;20023;-72
2021/05/13 10:59:10;;;;;;;10.80;9.02;;;;;;;17.36;65.71;100352.97;5113662;28;20028;-72
2021/05/13 11:01:40;;;;;;;9.48;8.05;;;;;;;17.35;65.94;100346.66;5099084;28;20042;-73
2021/05/13 11:04:24;;;;;;;9.80;8.20;;;;;;;17.35;65.95;100334.78;5111727;28;20046;-72
2021/05/13 11:06:53;;;;;;;9.95;8.77;;;;;;;17.44;65.76;100339.13;5099054;28;20023;-71
2021/05/13 11:12:05;;;;;;;9.02;8.00;;;;;;;17.58;65.57;100335.34;5102700;28;20061;-73
2021/05/13 11:14:30;;;;;;;11.25;8.15;;;;;;;17.65;65.20;100333.69;5109872;28;20020;-72
2021/05/13 11:16:57;;;;;;;10.13;8.40;;;;;;;17.59;64.91;100332.25;5084269;28;20065;-73
2021/05/13 11:19:24;;;;;;;11.50;8.40;;;;;;;17.55;65.07;100333.25;5093042;28;20027;-71
2021/05/13 11:22:15;;;;;;;10.75;8.07;;;;;;;17.62;65.10;100328.03;5082601;28;20036;-72
2021/05/13 11:24:41;;;;;;;11.38;9.30;;;;;;;17.71;64.83;100329.59;5085614;28;20115;-72